Laramie, Wyoming
Current Conditions -  °F | °C
As of 12:53 AM on Saturday 25 Oct 2014 (Local Time) from KLAR Reporting Station
Clear Clear  
Wind Chill: 42°   Ceiling: Unl
Heat Index: 46°   Visibility: 10mi
Dew Point: 22°   Wind: 7mph
Humidity: 39%   Direction: 250°WSW
Pressure: 30.32"   Gusts: NA
Location:  41.31°N, 105.59°W
Report Text: KLAR 250653Z AUTO 25006KT 10SM CLR 08/M06 A3032 RMK AO2 SLP178 T00781056 402170039
Loading
Personal Weather Stations






























Interactive Weather Map
Tropical Storm Tracking
New forecast layout! Learn more

10-Day Weather Forecast

Advertisements
Track Severe Weather on mobile